Thunder radar more information blitzortung!


Radar de pluja more information rain snow radar


Visita la nostra xarxa de llocs de meteo:

Template documentation
and downloads

And another site



No particular awareness of the weather is required.    There are no Weather-warnings

Pagina Historial Weather Underground text

Diari Resum Octubre 3, 2017 Unitats:  Mètric    Imperial   Tant
« Previous Dia
SegĂźent Dia »
Diari Setmana Mensual Anual Personalitzada
  Maxima: Minima: Media:
Temperatura: -17.8 °C -8.6 °C -5.9 °C
Punt de rosada: -17.8 °C -9.8 °C -8.9 °C
Humitat: Humidity % 54 % 72 %
Wind Speed: 0 km/h 0 km/h 7.4 km/h
RĂ fegues de vent: 0 km/h - -
Vent:- - South
Pression baro: 0 hPa 34533.8 hPa -
Precipitacions: 0 mm    
Historical Graphs
 
 
Dades de taula per Octubre 3, 2017
Temps Temperatura Punt de rosada Pression baro Vent Wind Speed RĂ fegues de vent Humitat Rainfall Rate (Hourly)
-17.8 °C -17.8 °C 0 hPa Calm     Humidity % 0 mm
00:00 -8.3 °C -9.8 °C 34601.5 hPa Calm   5.1 km/h 84 % 0 mm
00:02 -7.1 °C -9.3 °C 34669.3 hPa WSW 6 km/h   78 % 0 mm
00:07 -7.2 °C -9.3 °C 34669.3 hPa WSW 2.3 km/h   78 % 0 mm
00:10 -8.3 °C -9.8 °C 34601.5 hPa Calm     85 % 0 mm
00:12 -7.2 °C -9.4 °C 34669.3 hPa Calm     78 % 0 mm
00:20 -8.4 °C -9.8 °C 34601.5 hPa Calm     85 % 0 mm
00:30 -8.4 °C -9.8 °C 34601.5 hPa Calm     85 % 0 mm
00:40 -8.4 °C -9.8 °C 34601.5 hPa Calm     86 % 0 mm
00:50 -8.4 °C -9.8 °C 34601.5 hPa Calm     86 % 0 mm
01:00 -8.5 °C -9.8 °C 34601.5 hPa Calm     86 % 0 mm
01:10 -8.5 °C -9.7 °C 34601.5 hPa Calm     87 % 0 mm
01:20 -8.6 °C -9.8 °C 34601.5 hPa Calm   5.1 km/h 87 % 0 mm
01:30 -8.6 °C -9.8 °C 34601.5 hPa West 2.6 km/h 5.1 km/h 87 % 0 mm
01:40 -8.6 °C -9.8 °C 34601.5 hPa Calm   5.1 km/h 87 % 0 mm
01:50 -8.6 °C -9.8 °C 34601.5 hPa WSW 5.1 km/h 5.1 km/h 87 % 0 mm
02:00 -8.5 °C -9.7 °C 34567.7 hPa WSW 2.6 km/h 5.1 km/h 87 % 0 mm
02:10 -8.4 °C -9.7 °C 34601.5 hPa Calm   2.6 km/h 87 % 0 mm
02:20 -8.5 °C -9.7 °C 34601.5 hPa WSW 2.6 km/h 5.1 km/h 87 % 0 mm
02:30 -8.5 °C -9.7 °C 34601.5 hPa SW 2.6 km/h 5.1 km/h 87 % 0 mm
02:40 -8.6 °C -9.8 °C 34601.5 hPa SW 2.6 km/h 5.1 km/h 87 % 0 mm
02:50 -8.5 °C -9.7 °C 34601.5 hPa WSW 2.6 km/h 5.1 km/h 87 % 0 mm
03:00 -8.4 °C -9.6 °C 34601.5 hPa Calm   5.1 km/h 87 % 0 mm
03:10 -8.3 °C -9.6 °C 34601.5 hPa Calm   2.6 km/h 87 % 0 mm
03:20 -8.3 °C -9.6 °C 34601.5 hPa Calm   5.1 km/h 86 % 0 mm
03:30 -8.3 °C -9.6 °C 34601.5 hPa WSW 2.6 km/h 5.1 km/h 86 % 0 mm
03:40 -8.2 °C -9.6 °C 34601.5 hPa Calm   5.1 km/h 86 % 0 mm
03:50 -8.2 °C -9.5 °C 34601.5 hPa SW 5.1 km/h 5.1 km/h 86 % 0 mm
04:00 -8.2 °C -9.5 °C 34601.5 hPa SW 5.1 km/h 5.1 km/h 86 % 0 mm
04:10 -8.1 °C -9.4 °C 34601.5 hPa SW 2.6 km/h 5.1 km/h 86 % 0 mm
04:20 -7.9 °C -9.3 °C 34601.5 hPa SW 2.6 km/h 5.1 km/h 86 % 0 mm
04:30 -7.8 °C -9.2 °C 34567.7 hPa WSW 2.6 km/h 7.7 km/h 86 % 0 mm
04:40 -7.7 °C -9.1 °C 34601.5 hPa WSW 2.6 km/h 5.1 km/h 85 % 0 mm
04:50 -7.6 °C -9.1 °C 34601.5 hPa SW 2.6 km/h 5.1 km/h 85 % 0 mm
05:00 -7.5 °C -8.9 °C 34567.7 hPa SW 5.1 km/h 7.7 km/h 85 % 0 mm
05:10 -7.3 °C -8.8 °C 34601.5 hPa Calm   5.1 km/h 84 % 0 mm
05:20 -7.2 °C -8.8 °C 34601.5 hPa SW 5.1 km/h 5.1 km/h 83 % 0 mm
05:30 -7.1 °C -8.7 °C 34601.5 hPa SW 2.6 km/h 7.7 km/h 83 % 0 mm
05:40 -6.9 °C -8.7 °C 34601.5 hPa Calm   5.1 km/h 82 % 0 mm
05:50 -6.7 °C -8.7 °C 34601.5 hPa SSW 5.1 km/h 5.1 km/h 80 % 0 mm
06:00 -6.4 °C -8.4 °C 34601.5 hPa South 2.6 km/h 5.1 km/h 80 % 0 mm
06:10 -6.2 °C -8.3 °C 34601.5 hPa Calm   5.1 km/h 79 % 0 mm
06:20 -6.3 °C -8.6 °C 34601.5 hPa ESE 2.6 km/h 7.7 km/h 78 % 0 mm
11:28 -6.2 °C -8.6 °C 34601.5 hPa East 6 km/h 6 km/h 77 % 0 mm
11:29 -6.2 °C -8.6 °C 34601.5 hPa East 6 km/h 6 km/h 77 % 0 mm
11:34 -6.2 °C -8.5 °C 34601.5 hPa NNE 4.2 km/h 4.2 km/h 77 % 0 mm
11:39 -5.9 °C -8.4 °C 34601.5 hPa North 4.2 km/h 4.2 km/h 76 % 0 mm
11:44 -5.6 °C -8.1 °C 34601.5 hPa NE 9 km/h 9 km/h 76 % 0 mm
11:49 -5.6 °C -8.2 °C 34601.5 hPa East 6.3 km/h 6.3 km/h 75 % 0 mm
11:54 -5.5 °C -8.2 °C 34601.5 hPa ENE 9 km/h 9 km/h 74 % 0 mm
11:59 -5.4 °C -8.2 °C 34601.5 hPa ENE 9 km/h 9 km/h 73 % 0 mm
12:04 -5.3 °C -8.2 °C 34601.5 hPa ENE 6.3 km/h 6.3 km/h 73 % 0 mm
12:09 -5.4 °C -8.3 °C 34601.5 hPa ENE 9 km/h 9 km/h 73 % 0 mm
12:14 -5.4 °C -8.4 °C 34601.5 hPa NE 9.8 km/h 9.8 km/h 72 % 0 mm
12:19 -5.3 °C -8.2 °C 34601.5 hPa WNW 6 km/h 6 km/h 72 % 0 mm
12:24 -5.3 °C -8.3 °C 34601.5 hPa NNE 15 km/h 15 km/h 71 % 0 mm
12:29 -4.9 °C -7.9 °C 34601.5 hPa North 6 km/h 6 km/h 72 % 0 mm
12:34 -4.7 °C -7.9 °C 34601.5 hPa NNE 9 km/h 9 km/h 70 % 0 mm
12:39 -4.5 °C -7.7 °C 34601.5 hPa NNE 9.3 km/h 9.3 km/h 70 % 0 mm
12:44 -4.6 °C -7.9 °C 34601.5 hPa WNW 6 km/h 6 km/h 69 % 0 mm
12:49 -4.3 °C -7.8 °C 34601.5 hPa West 6.3 km/h 6.3 km/h 68 % 0 mm
12:54 -4.2 °C -8 °C 34601.5 hPa NE 6 km/h 6 km/h 66 % 0 mm
12:59 -4.2 °C -8 °C 34601.5 hPa NE 9 km/h 9 km/h 66 % 0 mm
13:04 -4.3 °C -8.2 °C 34601.5 hPa NE 11.9 km/h 11.9 km/h 65 % 0 mm
13:14 -4.4 °C -8.6 °C 34601.5 hPa NNE 15 km/h 15 km/h 63 % 0 mm
13:19 -4.1 °C -8.2 °C 34601.5 hPa NE 9 km/h 9 km/h 64 % 0 mm
13:24 -4.2 °C -8.5 °C 34601.5 hPa East 11.9 km/h 11.9 km/h 62 % 0 mm
13:29 -4.2 °C -8.5 °C 34601.5 hPa NE 15 km/h 15 km/h 62 % 0 mm
13:34 -4 °C -8.4 °C 34601.5 hPa ENE 9.8 km/h 9.8 km/h 61 % 0 mm
13:39 -4.1 °C -8.4 °C 34601.5 hPa ENE 15 km/h 15 km/h 62 % 0 mm
13:44 -4.1 °C -8.4 °C 34601.5 hPa NE 11.9 km/h 11.9 km/h 62 % 0 mm
13:49 -4.1 °C -8.4 °C 34601.5 hPa ENE 15 km/h 15 km/h 62 % 0 mm
13:54 -4.1 °C -8.5 °C 34601.5 hPa NNE 15 km/h 15 km/h 61 % 0 mm
13:59 -4.1 °C -8.5 °C 34601.5 hPa NNE 11.9 km/h 11.9 km/h 61 % 0 mm
14:01 -4 °C -8.4 °C 34601.5 hPa NE 15.6 km/h 15.6 km/h 61 % 0 mm
14:06 -4 °C -8.4 °C 34601.5 hPa NNW 8.5 km/h 8.5 km/h 61 % 0 mm
14:11 -3.8 °C -8.4 °C 34601.5 hPa NE 6.3 km/h 6.3 km/h 60 % 0 mm
14:16 -3.7 °C -8.3 °C 34567.7 hPa NNE 12.2 km/h 12.2 km/h 60 % 0 mm
14:21 -3.9 °C -8.6 °C 34567.7 hPa NE 15 km/h 15 km/h 60 % 0 mm
14:26 -4 °C -8.6 °C 34567.7 hPa South 9 km/h 9 km/h 60 % 0 mm
14:31 -3.6 °C -8.4 °C 34567.7 hPa NNE 15.3 km/h 15.3 km/h 59 % 0 mm
14:36 -3.5 °C -8.4 °C 34567.7 hPa ESE 11.9 km/h 11.9 km/h 58 % 0 mm
14:41 -3.7 °C -8.6 °C 34567.7 hPa NNE 15 km/h 15 km/h 58 % 0 mm
14:46 -3.8 °C -8.7 °C 34567.7 hPa NNE 12.7 km/h 12.7 km/h 58 % 0 mm
14:51 -3.9 °C -8.7 °C 34567.7 hPa NE 15 km/h 15 km/h 59 % 0 mm
14:56 -3.9 °C -8.9 °C 34567.7 hPa ESE 11.9 km/h 11.9 km/h 57 % 0 mm
15:01 -3.8 °C -8.9 °C 34567.7 hPa NNE 9 km/h 9 km/h 57 % 0 mm
15:06 -3.8 °C -9.2 °C 34567.7 hPa WSW 15 km/h 15 km/h 55 % 0 mm
15:08 -3.6 °C -8.7 °C 34567.7 hPa NE 9 km/h 9 km/h 57 % 0 mm
15:13 -3.5 °C -8.7 °C 34567.7 hPa ENE 11.9 km/h 11.9 km/h 56 % 0 mm
15:18 -3.3 °C -8.7 °C 34533.8 hPa ENE 11.9 km/h 11.9 km/h 55 % 0 mm
15:23 -3.3 °C -8.6 °C 34533.8 hPa ESE 16.1 km/h 16.1 km/h 56 % 0 mm
15:28 -3.1 °C -8.5 °C 34533.8 hPa East 14 km/h 14 km/h 55 % 0 mm
15:33 -2.9 °C -8.6 °C 34567.7 hPa SSW 9 km/h 9 km/h 54 % 0 mm
15:38 -3.1 °C -8.7 °C 34567.7 hPa ESE 15 km/h 15 km/h 54 % 0 mm
15:43 -3.1 °C -8.7 °C 34567.7 hPa SE 26.9 km/h 26.9 km/h 54 % 0 mm
15:48 -3.2 °C -8.8 °C 34533.8 hPa ENE 15 km/h 15 km/h 54 % 0 mm
15:53 -3.6 °C -8.9 °C 34533.8 hPa ESE 23.8 km/h 23.8 km/h 55 % 0 mm
15:58 -3.8 °C -9 °C 34533.8 hPa SSE 27.7 km/h 27.7 km/h 56 % 0 mm
16:03 -3.8 °C -8.9 °C 34567.7 hPa East 18.3 km/h 18.3 km/h 57 % 0 mm
16:08 -4 °C -8.8 °C 34567.7 hPa ESE 22 km/h 22 km/h 59 % 0 mm
16:13 -4.1 °C -8.8 °C 34567.7 hPa East 20.9 km/h 20.9 km/h 59 % 0 mm
16:18 -4.1 °C -8.7 °C 34567.7 hPa East 19.6 km/h 19.6 km/h 60 % 0 mm
16:23 -4.2 °C -8.8 °C 34567.7 hPa East 32.8 km/h 32.8 km/h 60 % 0 mm
16:28 -4.2 °C -8.7 °C 34567.7 hPa ESE 20.9 km/h 20.9 km/h 61 % 0 mm
16:33 -4.3 °C -8.7 °C 34533.8 hPa East 17.9 km/h 17.9 km/h 61 % 0 mm
16:38 -4.3 °C -8.7 °C 34533.8 hPa ESE 15 km/h 15 km/h 61 % 0 mm
16:43 -4.2 °C -8.7 °C 34533.8 hPa ESE 9.8 km/h 9.8 km/h 61 % 0 mm
16:48 -4.2 °C -8.7 °C 34533.8 hPa East 15 km/h 15 km/h 61 % 0 mm
16:53 -4.1 °C -8.6 °C 34533.8 hPa East 15 km/h 15 km/h 61 % 0 mm
16:58 -4.2 °C -8.7 °C 34533.8 hPa SE 23.8 km/h 23.8 km/h 61 % 0 mm
17:03 -4.2 °C -8.7 °C 34533.8 hPa NNE 14.5 km/h 14.5 km/h 61 % 0 mm
17:08 -4.2 °C -8.7 °C 34533.8 hPa ESE 15 km/h 15 km/h 61 % 0 mm
17:13 -4.3 °C -8.8 °C 34533.8 hPa South 15 km/h 15 km/h 61 % 0 mm
17:18 -4.3 °C -8.8 °C 34533.8 hPa SSE 9 km/h 9.3 km/h 61 % 0 mm
17:23 -4.4 °C -8.8 °C 34533.8 hPa East 11.9 km/h 11.9 km/h 61 % 0 mm
17:28 -4.4 °C -8.9 °C 34533.8 hPa SSW 6.3 km/h 6.3 km/h 61 % 0 mm
17:33 -4.5 °C -8.9 °C 34567.7 hPa SE 11.9 km/h 11.9 km/h 61 % 0 mm
17:38 -4.5 °C -8.8 °C 34567.7 hPa South 4.2 km/h 4.2 km/h 62 % 0 mm
17:43 -4.5 °C -8.8 °C 34567.7 hPa SSE 15 km/h 15 km/h 62 % 0 mm
17:48 -4.5 °C -8.8 °C 34567.7 hPa South 9 km/h 9 km/h 62 % 0 mm
17:53 -4.4 °C -8.9 °C 34567.7 hPa ESE 15 km/h 15 km/h 61 % 0 mm
17:54 -4.4 °C -8.9 °C 34567.7 hPa SSE 15 km/h 15 km/h 61 % 0 mm
17:59 -4.3 °C -8.6 °C 34567.7 hPa ESE 6.8 km/h 6.8 km/h 62 % 0 mm
18:04 -4.2 °C -8.6 °C 34567.7 hPa SSE 6 km/h 6 km/h 61 % 0 mm
18:19 -4.2 °C -8.7 °C 34567.7 hPa East 6.8 km/h 6.8 km/h 61 % 0 mm
18:24 -4.3 °C -8.8 °C 34567.7 hPa South 9 km/h 9 km/h 61 % 0 mm
18:29 -4.4 °C -8.8 °C 34567.7 hPa ESE 11.9 km/h 11.9 km/h 61 % 0 mm
18:34 -4.2 °C -8.5 °C 34567.7 hPa SW 11.9 km/h 11.9 km/h 62 % 0 mm
18:39 -4.1 °C -8.4 °C 34567.7 hPa SW 11.9 km/h 11.9 km/h 62 % 0 mm
18:49 -4.2 °C -8.4 °C 34567.7 hPa SSW 11.9 km/h 11.9 km/h 63 % 0 mm
18:54 -4.3 °C -8.5 °C 34567.7 hPa WSW 10.3 km/h 10.3 km/h 63 % 0 mm
18:59 -4.5 °C -8.5 °C 34567.7 hPa West 15 km/h 15 km/h 64 % 0 mm
19:04 -4.6 °C -8.6 °C 34567.7 hPa SSW 6 km/h 6 km/h 64 % 0 mm
19:09 -4.7 °C -8.7 °C 34567.7 hPa South 17.9 km/h 17.9 km/h 64 % 0 mm
19:14 -4.8 °C -8.8 °C 34567.7 hPa SW 15.3 km/h 15.3 km/h 64 % 0 mm
19:19 -4.9 °C -8.9 °C 34601.5 hPa WSW 9 km/h 9 km/h 64 % 0 mm
19:24 -5 °C -8.8 °C 34601.5 hPa WSW 6.3 km/h 6.3 km/h 65 % 0 mm
19:25 -7.3 °C -8.9 °C 34635.4 hPa Calm   2.6 km/h 83 % 0 mm
19:29 -5.1 °C -8.9 °C 34601.5 hPa SW 11.9 km/h 11.9 km/h 65 % 0 mm
19:34 -5.2 °C -9 °C 34601.5 hPa SW 6.3 km/h 6.8 km/h 65 % 0 mm
19:35 -7.3 °C -8.8 °C 34635.4 hPa Calm     84 % 0 mm
19:39 -5.3 °C -9 °C 34601.5 hPa WSW 9 km/h 9 km/h 66 % 0 mm
19:44 -5.3 °C -9.1 °C 34567.7 hPa SW 6.8 km/h 6.8 km/h 66 % 0 mm
19:45 -7.4 °C -8.9 °C 34669.3 hPa Calm     84 % 0 mm
19:49 -5.4 °C -8.9 °C 34567.7 hPa WSW 6 km/h 6 km/h 67 % 0 mm
19:54 -5.4 °C -8.9 °C 34567.7 hPa SW 6 km/h 6 km/h 67 % 0 mm
19:55 -7.4 °C -8.9 °C 34669.3 hPa Calm     84 % 0 mm
19:59 -5.4 °C -9 °C 34601.5 hPa SSW 9.8 km/h 9.8 km/h 67 % 0 mm
20:04 -5.4 °C -8.9 °C 34601.5 hPa WSW 4.2 km/h   68 % 0 mm
20:05 -7.4 °C -8.9 °C 34669.3 hPa Calm     85 % 0 mm
20:09 -5.5 °C -8.9 °C 34601.5 hPa WSW 6 km/h 6 km/h 68 % 0 mm
20:14 -5.6 °C -8.9 °C 34601.5 hPa SW 7.6 km/h 7.6 km/h 69 % 0 mm
20:15 -7.5 °C -8.9 °C 34635.4 hPa Calm     85 % 0 mm
20:19 -5.7 °C -8.8 °C 34601.5 hPa WSW 9 km/h 9 km/h 70 % 0 mm
20:24 -5.7 °C -8.9 °C 34601.5 hPa WSW 3.7 km/h 3.7 km/h 70 % 0 mm
20:25 -7.6 °C -8.9 °C 34635.4 hPa Calm     86 % 0 mm
20:29 -5.8 °C -8.9 °C 34601.5 hPa West 6 km/h 6 km/h 70 % 0 mm
20:34 -5.8 °C -9 °C 34601.5 hPa WSW 6 km/h 6 km/h 70 % 0 mm
20:35 -7.7 °C -9.1 °C 34635.4 hPa SW 2.6 km/h 5.1 km/h 85 % 0 mm
20:39 -5.8 °C -8.9 °C 34601.5 hPa SW 6 km/h 6 km/h 71 % 0 mm
20:44 -5.9 °C -8.9 °C 34601.5 hPa WSW 3.1 km/h   71 % 0 mm
20:45 -7.7 °C -9.1 °C 34601.5 hPa WSW 2.6 km/h 7.7 km/h 85 % 0 mm
20:49 -5.9 °C -9 °C 34601.5 hPa SW 2.3 km/h   71 % 0 mm
20:54 -6 °C -9.1 °C 34601.5 hPa WSW 9 km/h 9 km/h 71 % 0 mm
20:55 -7.6 °C -8.9 °C 34601.5 hPa Calm   2.6 km/h 86 % 0 mm
20:59 -6 °C -8.9 °C 34601.5 hPa SW 6 km/h 6 km/h 72 % 0 mm
21:04 -6.1 °C -9 °C 34601.5 hPa SW 6 km/h 6 km/h 72 % 0 mm
21:05 -7.6 °C -8.9 °C 34601.5 hPa Calm     86 % 0 mm
21:09 -6.2 °C -9.1 °C 34601.5 hPa WSW 6 km/h 6 km/h 72 % 0 mm
21:14 -6.2 °C -8.9 °C 34601.5 hPa West 6 km/h 6 km/h 73 % 0 mm
21:15 -7.7 °C -9 °C 34635.4 hPa Calm     86 % 0 mm
21:19 -6.2 °C -9 °C 34601.5 hPa SW 6 km/h 6 km/h 73 % 0 mm
21:24 -6.3 °C -8.9 °C 34601.5 hPa SW 6 km/h 6 km/h 74 % 0 mm
21:25 -7.7 °C -9.1 °C 34635.4 hPa West 2.6 km/h 2.6 km/h 86 % 0 mm
21:29 -6.3 °C -9 °C 34601.5 hPa WSW 6 km/h 6 km/h 74 % 0 mm
21:34 -6.3 °C -8.9 °C 34601.5 hPa WSW 6 km/h   75 % 0 mm
21:35 -7.7 °C -9.1 °C 34635.4 hPa West 2.6 km/h 5.1 km/h 85 % 0 mm
21:39 -6.4 °C -8.9 °C 34601.5 hPa SW 6 km/h   75 % 0 mm
21:44 -6.4 °C -8.9 °C 34635.4 hPa West 3.7 km/h 4.2 km/h 75 % 0 mm
21:45 -7.7 °C -9.1 °C 34635.4 hPa West 2.6 km/h 5.1 km/h 85 % 0 mm
21:49 -6.4 °C -8.9 °C 34635.4 hPa WSW 5.6 km/h 5.6 km/h 75 % 0 mm
21:54 -6.4 °C -8.9 °C 34635.4 hPa WSW 9 km/h 9 km/h 76 % 0 mm
21:55 -7.7 °C -9.1 °C 34635.4 hPa Calm     85 % 0 mm
21:59 -6.5 °C -8.9 °C 34635.4 hPa SW 6 km/h 6 km/h 76 % 0 mm
22:04 -6.6 °C -9 °C 34635.4 hPa SW 6.3 km/h 6.3 km/h 76 % 0 mm
22:05 -7.7 °C -9.3 °C 34635.4 hPa NW 2.6 km/h 5.1 km/h 84 % 0 mm
22:09 -6.6 °C -8.8 °C 34635.4 hPa West 6 km/h 6 km/h 77 % 0 mm
22:14 -6.6 °C -8.8 °C 34635.4 hPa WSW 6 km/h 6 km/h 77 % 0 mm
22:19 -6.6 °C -8.9 °C 34635.4 hPa WSW 6 km/h 6 km/h 77 % 0 mm
22:24 -6.7 °C -8.8 °C 34635.4 hPa West 3.1 km/h 3.1 km/h 78 % 0 mm
22:29 -6.7 °C -8.8 °C 34635.4 hPa WSW 6 km/h 6 km/h 78 % 0 mm
22:34 -6.7 °C -8.8 °C 34635.4 hPa WSW 6 km/h 6 km/h 78 % 0 mm
22:35 -7.8 °C -9.3 °C 34635.4 hPa Calm     85 % 0 mm
22:39 -6.7 °C -8.8 °C 34635.4 hPa WSW 6 km/h   79 % 0 mm
22:44 -6.7 °C -8.8 °C 34635.4 hPa Calm     79 % 0 mm
22:45 -7.9 °C -9.3 °C 34635.4 hPa Calm     85 % 0 mm
22:49 -6.8 °C -8.8 °C 34635.4 hPa WSW 3.1 km/h 3.1 km/h 80 % 0 mm
22:54 -6.8 °C -8.8 °C 34635.4 hPa West 4.2 km/h 4.2 km/h 80 % 0 mm
22:55 -6.8 °C -8.8 °C 34635.4 hPa West 3.7 km/h 3.7 km/h 80 % 0 mm
23:00 -6.8 °C -8.8 °C 34635.4 hPa WSW 6 km/h   80 % 0 mm
23:05 -6.8 °C -8.8 °C 34635.4 hPa WSW 6 km/h 6 km/h 80 % 0 mm
23:10 -6.8 °C -8.7 °C 34635.4 hPa Calm     81 % 0 mm
23:15 -6.8 °C -8.7 °C 34635.4 hPa WSW 3.1 km/h 3.1 km/h 81 % 0 mm
23:20 -6.9 °C -8.8 °C 34635.4 hPa SW 5.6 km/h   81 % 0 mm
23:25 -6.9 °C -8.8 °C 34635.4 hPa WSW 4.2 km/h 4.2 km/h 81 % 0 mm
23:35 -6.9 °C -8.8 °C 34635.4 hPa West 5.1 km/h   81 % 0 mm
23:40 -6.9 °C -8.8 °C 34635.4 hPa West 6 km/h 6 km/h 81 % 0 mm
23:45 -6.9 °C -8.8 °C 34669.3 hPa WSW 3.1 km/h 3.7 km/h 81 % 0 mm
23:50 -7 °C -8.8 °C 34669.3 hPa West 6 km/h 6 km/h 81 % 0 mm
23:55 -7.1 °C -8.8 °C 34669.3 hPa SW 3.1 km/h 3.1 km/h 82 % 0 mm
Meteo Sesrovires
Elogis d' Weather Underground - 1.5 mb

Guio original per  Jim McMurry - jmcmurry@mwt.net Adaptat per a la plantilla per  Wim van der Kuil - Leuven-Template.eu

Trobareu la nostra informacio del temps tambe a:

Weather Underground

AWEKAS